Time;durP1;ratioP1;P1;durP2;ratioP2;P2;SDS_P1;SDS_P2;PMS_P1;PMS_P2;Temp;Humidity;BMP_temperature;BMP_pressure;BME280_temperature;BME280_humidity;BME280_pressure;Samples;Min_cycle;Max_cycle;Signal;HPM_P1;HPM_P2
2022/12/16 00:00:12;;;;;;;19.90;8.73;;;;;;;5.29;59.47;98912.41;4409522;32;20109;-89
2022/12/16 00:02:38;;;;;;;24.02;8.98;;;;;;;5.09;59.47;98912.88;4397660;32;20110;-90
2022/12/16 00:05:03;;;;;;;22.85;8.10;;;;;;;5.10;59.46;98909.41;4418860;32;20139;-89
2022/12/16 00:07:29;;;;;;;21.55;9.40;;;;;;;5.06;59.46;98901.78;4384555;32;20359;-89
2022/12/16 00:09:54;;;;;;;19.55;9.20;;;;;;;4.95;59.46;98896.84;4391341;32;20136;-90
2022/12/16 00:12:20;;;;;;;20.20;9.65;;;;;;;4.96;59.45;98895.13;4407368;32;20145;-89
2022/12/16 00:14:45;;;;;;;21.27;9.07;;;;;;;5.11;59.46;98885.31;4372055;32;20146;-90
2022/12/16 00:17:10;;;;;;;21.23;8.20;;;;;;;5.05;59.46;98889.78;4372177;32;20135;-89
2022/12/16 00:19:36;;;;;;;20.50;8.77;;;;;;;5.18;59.47;98886.84;4371452;32;20153;-88
2022/12/16 00:22:01;;;;;;;20.67;8.32;;;;;;;5.37;59.47;98879.50;4373273;32;20164;-87
2022/12/16 00:24:27;;;;;;;18.50;7.87;;;;;;;5.28;59.47;98884.91;4392821;32;20118;-88
2022/12/16 00:26:52;;;;;;;18.50;7.50;;;;;;;5.30;59.47;98882.28;4409236;32;20153;-88
2022/12/16 00:29:17;;;;;;;18.35;8.02;;;;;;;5.33;59.48;98880.47;4411686;32;20434;-88
2022/12/16 00:31:46;;;;;;;17.20;8.23;;;;;;;5.28;59.47;98877.16;4376905;32;20126;-88
2022/12/16 00:34:13;;;;;;;17.48;6.62;;;;;;;5.46;59.48;98875.88;4399760;32;20815;-87
2022/12/16 00:36:38;;;;;;;15.05;6.78;;;;;;;5.51;59.48;98879.19;4383834;32;20089;-87
2022/12/16 00:39:03;;;;;;;13.75;6.57;;;;;;;5.35;59.47;98873.53;4395699;32;20231;-87
2022/12/16 00:41:29;;;;;;;17.02;8.20;;;;;;;5.38;59.47;98882.94;4393084;32;20133;-88
2022/12/16 00:43:54;;;;;;;13.55;6.40;;;;;;;5.45;59.48;98869.88;4386061;32;20390;-87
2022/12/16 00:46:19;;;;;;;12.95;6.78;;;;;;;5.64;59.49;98877.12;4411413;32;20180;-87
2022/12/16 00:48:45;;;;;;;11.70;6.00;;;;;;;5.55;59.49;98878.22;4411650;32;20142;-88
2022/12/16 00:51:10;;;;;;;15.05;7.12;;;;;;;5.30;59.47;98864.22;4398675;32;20177;-88
2022/12/16 00:53:37;;;;;;;16.73;6.95;;;;;;;5.31;59.48;98866.78;4411523;32;20146;-87
2022/12/16 00:56:13;;;;;;;14.02;6.18;;;;;;;5.40;59.48;98857.94;4411121;32;20107;-87
2022/12/16 00:58:38;;;;;;;12.30;5.87;;;;;;;5.53;59.49;98855.03;4388314;32;20139;-88
2022/12/16 01:01:04;;;;;;;15.05;6.30;;;;;;;5.42;59.48;98858.75;4383489;32;20396;-87
2022/12/16 01:03:29;;;;;;;12.10;5.62;;;;;;;5.38;59.47;98854.56;4395719;32;20197;-88
2022/12/16 01:05:55;;;;;;;13.48;5.85;;;;;;;5.47;59.48;98844.88;4407847;32;20116;-88
2022/12/16 01:08:20;;;;;;;12.85;5.80;;;;;;;5.47;59.48;98834.53;4412394;32;20111;-87
2022/12/16 01:10:50;;;;;;;14.38;6.78;;;;;;;5.55;59.49;98831.75;4414082;32;20120;-87
2022/12/16 01:13:16;;;;;;;;;;;;;;;5.63;59.49;98827.22;4390293;32;20097;-88
2022/12/16 01:15:41;;;;;;;12.47;5.80;;;;;;;5.56;59.49;98815.38;4417987;32;20340;-87
2022/12/16 01:18:06;;;;;;;11.45;5.07;;;;;;;5.53;59.49;98805.13;4379027;32;25566;-87
2022/12/16 01:20:33;;;;;;;10.82;5.80;;;;;;;5.43;59.48;98808.81;4390251;32;21033;-85
2022/12/16 01:22:58;;;;;;;12.20;5.62;;;;;;;5.38;59.47;98793.47;4366512;32;20145;-87
2022/12/16 01:25:24;;;;;;;10.82;4.97;;;;;;;5.39;59.48;98790.00;4394048;32;20436;-85
2022/12/16 01:27:49;;;;;;;10.48;5.62;;;;;;;5.34;59.47;98788.44;4393833;32;20530;-87
2022/12/16 01:30:14;;;;;;;10.95;5.32;;;;;;;5.35;59.47;98779.81;4394834;32;20143;-87
2022/12/16 01:32:40;;;;;;;10.63;5.80;;;;;;;5.36;59.47;98772.03;4392283;32;20118;-87
2022/12/16 01:35:06;;;;;;;9.73;4.75;;;;;;;5.36;59.47;98758.28;4388250;32;20082;-87
2022/12/16 01:37:31;;;;;;;10.63;4.62;;;;;;;5.33;59.48;98755.78;4379244;32;20103;-87
2022/12/16 01:39:56;;;;;;;11.02;4.60;;;;;;;5.32;59.48;98754.94;4374309;32;20114;-87
2022/12/16 01:42:22;;;;;;;8.15;4.22;;;;;;;5.40;59.49;98741.81;4392172;32;20125;-88
2022/12/16 01:44:49;;;;;;;8.20;4.15;;;;;;;5.33;59.48;98748.88;4382068;32;20120;-87
2022/12/16 01:47:20;;;;;;;11.65;4.78;;;;;;;5.35;59.47;98741.09;4382063;32;20086;-86
2022/12/16 01:49:59;;;;;;;9.23;4.40;;;;;;;5.40;59.48;98729.75;4379450;32;20137;-87
2022/12/16 01:52:31;;;;;;;7.57;3.77;;;;;;;5.45;59.48;98722.75;4396263;32;20103;-87
2022/12/16 01:55:04;;;;;;;10.45;4.20;;;;;;;5.42;59.48;98714.22;4372116;32;20078;-86
2022/12/16 01:57:39;;;;;;;7.95;4.32;;;;;;;5.39;59.48;98710.00;4382003;32;20126;-87
2022/12/16 02:00:06;;;;;;;7.05;4.30;;;;;;;5.35;59.47;98702.41;4403970;32;20171;-87
2022/12/16 02:02:34;;;;;;;7.43;3.72;;;;;;;5.30;59.47;98687.03;4378811;32;20093;-87
2022/12/16 02:07:55;;;;;;;8.55;3.83;;;;;;;5.19;59.47;98669.25;4384337;32;20108;-87
2022/12/16 02:10:20;;;;;;;9.50;4.75;;;;;;;5.32;59.48;98658.63;4401112;32;108959;-87
2022/12/16 02:13:17;;;;;;;6.00;3.47;;;;;;;5.26;59.47;98639.00;4383233;32;20149;-87
2022/12/16 02:16:26;;;;;;;8.80;4.03;;;;;;;5.29;59.46;98625.16;4407365;32;20094;-89
2022/12/16 02:19:22;;;;;;;6.93;2.93;;;;;;;5.35;59.47;98617.25;4418566;32;20089;-88
2022/12/16 02:22:22;;;;;;;6.10;3.65;;;;;;;5.31;59.48;98606.16;4393540;32;20106;-89
2022/12/16 02:25:29;;;;;;;6.80;3.25;;;;;;;5.27;59.48;98590.81;4418754;32;20159;-88
2022/12/16 02:27:57;;;;;;;6.47;3.75;;;;;;;5.18;59.47;98584.19;4386471;32;20516;-88
2022/12/16 02:30:25;;;;;;;7.12;3.83;;;;;;;5.24;59.47;98574.56;4390147;32;20086;-89
2022/12/16 02:33:00;;;;;;;9.35;3.50;;;;;;;5.29;59.47;98574.41;4411310;32;20114;-89
2022/12/16 02:35:37;;;;;;;9.75;4.25;;;;;;;5.31;59.47;98579.53;4410327;32;20122;-88
2022/12/16 02:38:18;;;;;;;7.90;4.37;;;;;;;5.31;59.47;98574.38;4397354;32;20054;-89
2022/12/16 02:41:01;;;;;;;7.80;4.62;;;;;;;5.37;59.47;98584.50;4410844;32;20093;-88
2022/12/16 02:43:48;;;;;;;7.75;4.28;;;;;;;5.37;59.47;98593.09;4413557;32;20097;-88
2022/12/16 02:46:14;;;;;;;7.03;4.60;;;;;;;5.36;59.47;98596.56;4415525;32;20171;-89
2022/12/16 02:48:39;;;;;;;8.27;4.60;;;;;;;5.38;59.47;98601.66;4386745;32;20098;-89
2022/12/16 02:51:04;;;;;;;7.28;4.43;;;;;;;5.59;59.49;98615.66;4396009;32;20102;-87
2022/12/16 02:53:30;;;;;;;8.57;4.85;;;;;;;5.63;59.50;98605.19;4408845;32;20765;-89
2022/12/16 02:56:12;;;;;;;7.90;4.87;;;;;;;5.57;59.49;98625.19;4381544;32;20238;-90
2022/12/16 02:59:02;;;;;;;11.38;4.95;;;;;;;5.65;59.49;98607.72;4409329;32;20155;-90
2022/12/16 03:01:39;;;;;;;9.18;4.93;;;;;;;5.59;59.49;98607.94;4423754;32;20067;-89
2022/12/16 03:04:11;;;;;;;9.68;5.15;;;;;;;5.63;59.49;98594.03;4424510;32;20139;-89
2022/12/16 03:06:37;;;;;;;8.80;4.85;;;;;;;5.55;59.49;98587.38;4400104;32;20132;-90
2022/12/16 03:09:05;;;;;;;9.50;5.03;;;;;;;5.57;59.49;98571.84;4392013;32;20107;-89
2022/12/16 03:11:31;;;;;;;9.68;5.47;;;;;;;5.48;59.48;98560.06;4385038;32;20781;-90
2022/12/16 03:13:56;;;;;;;9.35;5.07;;;;;;;5.55;59.49;98553.81;4376351;32;24416;-90
2022/12/16 03:16:25;;;;;;;9.50;4.62;;;;;;;5.49;59.48;98558.34;4400150;32;20137;-90
2022/12/16 03:18:53;;;;;;;10.23;5.60;;;;;;;5.39;59.48;98533.69;4398986;32;20082;-90
2022/12/16 03:21:19;;;;;;;10.88;5.40;;;;;;;5.37;59.47;98509.66;4405728;32;20100;-89
2022/12/16 03:23:46;;;;;;;10.32;5.10;;;;;;;5.37;59.47;98526.00;4400473;32;20182;-90
2022/12/16 03:26:20;;;;;;;8.85;5.12;;;;;;;5.27;59.47;98549.53;4400078;32;20470;-89
2022/12/16 03:28:59;;;;;;;9.10;5.03;;;;;;;5.35;59.47;98555.31;4386383;32;20098;-89
2022/12/16 03:31:43;;;;;;;11.57;5.72;;;;;;;5.01;59.47;98533.09;4390758;32;20069;-90
2022/12/16 03:34:11;;;;;;;9.95;5.75;;;;;;;4.99;59.45;98531.47;4412671;32;20109;-90
2022/12/16 03:36:36;;;;;;;8.70;4.93;;;;;;;5.23;59.46;98535.91;4397419;32;20109;-91
2022/12/16 03:39:03;;;;;;;14.80;5.43;;;;;;;5.16;59.47;98550.69;4399436;32;20431;-89
2022/12/16 03:41:29;;;;;;;11.23;5.35;;;;;;;5.33;59.48;98541.62;4399969;32;20077;-88
2022/12/16 03:43:54;;;;;;;10.48;5.18;;;;;;;5.23;59.46;98541.91;4412349;32;20882;-90
2022/12/16 03:46:20;;;;;;;9.73;5.40;;;;;;;5.34;59.47;98538.16;4405975;32;20176;-91
2022/12/16 03:48:48;;;;;;;10.60;5.40;;;;;;;5.30;59.47;98547.72;4397244;32;20177;-89
2022/12/16 03:51:14;;;;;;;10.88;5.03;;;;;;;5.24;59.47;98540.16;4394168;32;20442;-91
2022/12/16 03:53:40;;;;;;;6.55;4.10;;;;;;;5.39;59.48;98537.09;4412505;32;20180;-91
2022/12/16 03:56:05;;;;;;;7.15;4.43;;;;;;;5.56;59.49;98534.00;4406853;32;20113;-91
2022/12/16 03:58:32;;;;;;;6.57;4.28;;;;;;;5.48;59.48;98533.41;4395928;32;20094;-90
2022/12/16 04:00:59;;;;;;;7.37;4.18;;;;;;;5.47;59.49;98513.66;4405444;32;20421;-91
2022/12/16 04:03:24;;;;;;;6.68;4.18;;;;;;;5.59;59.49;98515.84;4405440;32;20494;-91
2022/12/16 04:05:50;;;;;;;8.32;4.57;;;;;;;5.52;59.48;98506.63;4371250;32;20185;-90
2022/12/16 04:08:15;;;;;;;7.50;4.28;;;;;;;5.44;59.48;98499.13;4370526;32;20200;-91
2022/12/16 04:24:26;;;;;;;7.87;4.45;;;;;;;5.45;59.48;98475.00;4406444;32;20696;-90
2022/12/16 04:30:17;;;;;;;7.28;4.30;;;;;;;5.81;59.50;98480.69;4405600;32;20084;-89
2022/12/16 04:32:21;;;;;;;10.55;5.15;;;;;;;5.96;59.51;98471.63;4405003;32;20089;-91
2022/12/16 04:34:46;;;;;;;9.05;4.68;;;;;;;5.97;59.51;98481.06;4383511;32;20117;-90
